createdAt,value
2018-11-28T00:02:23.954Z,96717.34
2018-11-28T00:04:52.889Z,96715.87
2018-11-28T00:07:22.194Z,96718.16
2018-11-28T00:09:51.603Z,96717.97
2018-11-28T00:12:44.463Z,96717.67
2018-11-28T00:15:17.456Z,96712.92
2018-11-28T00:17:46.521Z,96719.77
2018-11-28T00:20:34.995Z,96725.51
2018-11-28T00:23:04.432Z,96720.59
2018-11-28T00:25:33.368Z,96720.59
2018-11-28T00:28:04.865Z,96715.84
2018-11-28T00:30:53.362Z,96728.45
2018-11-28T00:33:22.402Z,96721.09
2018-11-28T00:35:51.417Z,96709.09
2018-11-28T00:38:20.695Z,96708.80
2018-11-28T00:46:07.341Z,96709.91
2018-11-28T00:48:36.106Z,96715.97
2018-11-28T00:51:04.791Z,96714.01
2018-11-28T00:53:33.556Z,96710.08
2018-11-28T00:56:21.540Z,96713.84
2018-11-28T00:58:50.335Z,96714.63
2018-11-28T01:01:38.284Z,96716.10
2018-11-28T01:04:07.002Z,96712.99
2018-11-28T01:06:35.812Z,96722.83
2018-11-28T01:09:23.812Z,96727.25
2018-11-28T01:11:52.618Z,96733.97
2018-11-28T01:14:21.498Z,96732.33
2018-11-28T01:17:09.504Z,96734.30
2018-11-28T01:19:38.147Z,96729.05
2018-11-28T01:22:06.845Z,96727.73
2018-11-28T01:24:54.840Z,96728.36
2018-11-28T01:27:23.500Z,96734.75
2018-11-28T01:29:54.893Z,96735.08
2018-11-28T01:32:45.820Z,96735.20
2018-11-28T01:35:15.633Z,96737.63
2018-11-28T01:37:44.485Z,96733.03
2018-11-28T01:40:32.767Z,96735.00
2018-11-28T01:43:20.751Z,96738.61
2018-11-28T01:45:49.525Z,96740.41
2018-11-28T01:48:37.524Z,96744.34
2018-11-28T01:51:07.022Z,96741.88
2018-11-28T01:53:35.591Z,96738.11
2018-11-28T01:56:23.610Z,96730.24
2018-11-28T01:58:52.301Z,96728.44
2018-11-28T02:01:20.988Z,96736.92
2018-11-28T02:04:08.972Z,96742.17
2018-11-28T02:06:37.617Z,96741.19
2018-11-28T02:09:09.012Z,96739.87
2018-11-28T02:11:56.971Z,96736.92
2018-11-28T02:14:25.691Z,96740.20
2018-11-28T02:16:54.411Z,96734.30
2018-11-28T02:19:42.407Z,96739.55
2018-11-28T02:22:11.224Z,96743.81
2018-11-28T02:24:39.865Z,96744.30
2018-11-28T02:27:08.781Z,96744.79
2018-11-28T02:29:37.495Z,96751.64
2018-11-28T02:32:06.388Z,96752.30
2018-11-28T02:34:54.403Z,96753.44
2018-11-28T02:37:23.043Z,96757.05
2018-11-28T02:39:51.723Z,96760.34
2018-11-28T02:42:39.732Z,96756.06
2018-11-28T02:45:27.723Z,96753.94
2018-11-28T02:47:56.383Z,96756.72
2018-11-28T02:50:44.633Z,96760.48
2018-11-28T02:53:13.312Z,96767.70
2018-11-28T02:55:42.092Z,96764.75
2018-11-28T02:58:10.734Z,96762.63
2018-11-28T03:00:58.732Z,96769.22
2018-11-28T03:03:27.449Z,96763.16
2018-11-28T03:05:56.240Z,96765.45
2018-11-28T03:08:44.174Z,96769.89
2018-11-28T03:11:12.918Z,96773.33
2018-11-28T03:13:41.486Z,96780.34
2018-11-28T03:16:29.457Z,96783.45
2018-11-28T03:18:58.138Z,96785.92
2018-11-28T03:21:26.901Z,96779.20
2018-11-28T03:24:14.848Z,96783.17
2018-11-28T03:26:43.631Z,96784.32
2018-11-28T03:29:12.243Z,96775.30
2018-11-28T03:32:00.280Z,96778.91
2018-11-28T03:34:28.877Z,96786.16
2018-11-28T03:36:57.588Z,96781.56
2018-11-28T03:39:45.891Z,96785.34
2018-11-28T03:42:15.010Z,96777.80
2018-11-28T03:44:43.612Z,96786.78
2018-11-28T03:47:12.282Z,96786.98
2018-11-28T03:50:00.328Z,96789.27
2018-11-28T03:52:29.069Z,96788.59
2018-11-28T03:54:57.766Z,96795.67
2018-11-28T03:57:46.294Z,96793.38
2018-11-28T04:00:34.339Z,96793.87
2018-11-28T04:03:03.109Z,96790.09
2018-11-28T04:05:51.081Z,96797.14
2018-11-28T04:08:21.849Z,96799.11
2018-11-28T04:10:50.676Z,96803.08
2018-11-28T04:13:38.646Z,96797.02
2018-11-28T04:16:07.702Z,96799.47
2018-11-28T04:19:24.547Z,96804.42
2018-11-28T04:24:53.914Z,96793.00
2018-11-28T04:27:41.952Z,96804.46
2018-11-28T04:30:30.026Z,96805.98
2018-11-28T04:32:58.658Z,96815.80
2018-11-28T04:35:46.936Z,96806.47
2018-11-28T04:38:15.673Z,96810.56
2018-11-28T04:41:03.981Z,96821.04
2018-11-28T04:43:32.662Z,96815.80
2018-11-28T04:46:01.462Z,96819.42
2018-11-28T04:48:30.101Z,96818.11
2018-11-28T04:51:18.128Z,96823.66
2018-11-28T04:53:46.826Z,96820.54
2018-11-28T04:56:15.584Z,96819.55
2018-11-28T04:59:03.567Z,96828.07
2018-11-28T05:01:32.274Z,96823.97
2018-11-28T05:04:01.042Z,96824.59
2018-11-28T05:07:08.590Z,96832.44
2018-11-28T05:09:37.424Z,96818.02
2018-11-28T05:12:06.185Z,96820.95
2018-11-28T05:14:54.461Z,96823.58
2018-11-28T05:17:31.028Z,96828.13
2018-11-28T05:19:59.760Z,96826.28
2018-11-28T05:22:48.037Z,96830.20
2018-11-28T05:25:29.376Z,96832.13
2018-11-28T05:28:20.841Z,96826.04
2018-11-28T05:30:49.558Z,96831.27
2018-11-28T05:36:26.909Z,96832.33
2018-11-28T05:38:57.387Z,96821.83
2018-11-28T05:41:24.285Z,96825.56
2018-11-28T05:44:12.271Z,96835.02
2018-11-28T05:46:41.326Z,96831.61
2018-11-28T05:49:15.026Z,96831.09
2018-11-28T05:51:38.751Z,96830.16
2018-11-28T05:54:07.522Z,96842.38
2018-11-28T05:56:36.196Z,96844.02
2018-11-28T05:59:04.939Z,96841.44
2018-11-28T06:01:33.741Z,96838.37
2018-11-28T06:06:50.148Z,96847.71
2018-11-28T06:09:38.366Z,96851.78
2018-11-28T06:12:07.227Z,96860.08
2018-11-28T06:14:36.060Z,96853.20
2018-11-28T06:17:04.723Z,96856.98
2018-11-28T06:19:53.008Z,96860.07
2018-11-28T06:22:21.740Z,96856.45
2018-11-28T06:24:52.168Z,96846.78
2018-11-28T06:27:40.496Z,96859.36
2018-11-28T06:30:37.528Z,96861.19
2018-11-28T06:33:06.601Z,96854.80
2018-11-28T06:35:54.622Z,96856.25
2018-11-28T06:38:42.587Z,96859.69
2018-11-28T06:41:30.315Z,96863.62
2018-11-28T06:43:59.015Z,96861.67
2018-11-28T06:46:27.719Z,96867.87
2018-11-28T06:48:56.430Z,96878.81
2018-11-28T06:51:25.132Z,96878.66
2018-11-28T06:53:54.042Z,96879.63
2018-11-28T06:56:43.271Z,96878.52
2018-11-28T06:59:10.743Z,96884.05
2018-11-28T07:02:00.712Z,96878.85
2018-11-28T07:04:49.030Z,96879.39
2018-11-28T07:07:18.998Z,96881.06
2018-11-28T07:09:47.686Z,96886.45
2018-11-28T07:12:36.010Z,96890.03
2018-11-28T07:15:04.819Z,96897.39
2018-11-28T07:17:33.510Z,96892.16
2018-11-28T07:20:23.287Z,96886.30
2018-11-28T07:22:54.877Z,96886.59
2018-11-28T07:25:25.682Z,96894.48
2018-11-28T07:28:13.998Z,96899.23
2018-11-28T07:30:42.723Z,96904.27
2018-11-28T07:33:11.458Z,96914.23
2018-11-28T07:35:40.906Z,96915.44
2018-11-28T07:38:28.910Z,96923.10
2018-11-28T07:40:57.609Z,96916.75
2018-11-28T07:43:26.305Z,96912.48
2018-11-28T07:46:14.561Z,96916.56
2018-11-28T07:48:43.323Z,96913.65
2018-11-28T07:51:14.100Z,96920.03
2018-11-28T07:54:02.434Z,96929.87
2018-11-28T07:56:31.164Z,96929.23
2018-11-28T07:58:59.783Z,96933.16
2018-11-28T08:01:28.449Z,96934.84
2018-11-28T08:04:16.754Z,96937.64
2018-11-28T08:06:45.717Z,96932.59
2018-11-28T08:09:14.347Z,96929.83
2018-11-28T08:11:43.074Z,96930.69
2018-11-28T08:14:31.344Z,96934.64
2018-11-28T08:17:00.106Z,96938.23
2018-11-28T08:22:36.259Z,96936.66
2018-11-28T08:25:04.748Z,96939.94
2018-11-28T08:27:33.209Z,96934.86
2018-11-28T08:30:40.718Z,96938.45
2018-11-28T08:33:30.798Z,96936.34
2018-11-28T08:35:59.563Z,96938.86
2018-11-28T08:38:47.886Z,96940.86
2018-11-28T08:41:19.264Z,96936.79
2018-11-28T08:46:48.117Z,96944.49
2018-11-28T08:49:16.892Z,96946.47
2018-11-28T08:51:46.087Z,96953.37
2018-11-28T08:54:34.350Z,96951.41
2018-11-28T08:57:03.017Z,96949.12
2018-11-28T08:59:31.728Z,96957.77
2018-11-28T09:02:02.921Z,96959.27
2018-11-28T09:04:51.829Z,96955.68
2018-11-28T09:07:20.486Z,96954.55
2018-11-28T09:09:49.831Z,96952.25
2018-11-28T09:12:17.790Z,96954.39
2018-11-28T09:15:34.974Z,96959.81
2018-11-28T09:18:22.970Z,96959.15
2018-11-28T09:21:29.928Z,96964.09
2018-11-28T09:23:58.569Z,96962.92
2018-11-28T09:26:27.261Z,96959.80
2018-11-28T09:29:15.578Z,96964.41
2018-11-28T09:31:45.753Z,96965.38
2018-11-28T09:34:14.394Z,96973.08
2018-11-28T09:36:43.087Z,96974.39
2018-11-28T09:39:31.385Z,96975.22
2018-11-28T09:42:00.159Z,96983.41
2018-11-28T09:44:28.880Z,96981.73
2018-11-28T09:46:59.847Z,96979.20
2018-11-28T09:49:48.094Z,96981.17
2018-11-28T09:52:16.808Z,96968.98
2018-11-28T09:54:45.515Z,96970.88
2018-11-28T09:57:14.160Z,96969.61
2018-11-28T10:00:02.467Z,96972.80
2018-11-28T10:02:31.235Z,96980.48
2018-11-28T10:08:01.554Z,96972.39
2018-11-28T10:10:31.065Z,96972.52
2018-11-28T10:12:59.716Z,96962.98
2018-11-28T10:18:54.618Z,96965.32
2018-11-28T10:21:23.332Z,96962.74
2018-11-28T10:24:11.627Z,96963.71
2018-11-28T10:26:40.330Z,96956.41
2018-11-28T10:29:09.004Z,96949.95
2018-11-28T10:31:39.924Z,96945.91
2018-11-28T10:34:29.616Z,96948.00
2018-11-28T10:39:47.154Z,96948.15
2018-11-28T10:42:35.111Z,96934.76
2018-11-28T10:45:03.853Z,96931.98
2018-11-28T10:47:34.562Z,96938.44
2018-11-28T10:50:22.831Z,96933.16
2018-11-28T10:52:51.543Z,96935.70
2018-11-28T10:55:40.913Z,96934.39
2018-11-28T10:58:09.600Z,96935.77
2018-11-28T11:00:57.585Z,96930.18
2018-11-28T11:03:45.248Z,96932.00
2018-11-28T11:09:52.128Z,96928.78
2018-11-28T11:12:39.747Z,96919.00
2018-11-28T11:15:14.767Z,96916.52
2018-11-28T11:18:10.518Z,96917.61
2018-11-28T11:20:34.759Z,96920.45
2018-11-28T11:23:23.094Z,96928.61
2018-11-28T11:25:52.178Z,96923.20
2018-11-28T11:28:20.830Z,96926.80
2018-11-28T11:30:49.600Z,96931.75
2018-11-28T11:33:37.890Z,96928.55
2018-11-28T11:36:25.907Z,96927.45
2018-11-28T11:38:54.540Z,96924.88
2018-11-28T11:41:42.553Z,96928.27
2018-11-28T11:44:11.214Z,96925.48
2018-11-28T11:46:39.860Z,96922.00
2018-11-28T11:49:28.348Z,96922.10
2018-11-28T11:51:56.784Z,96905.52
2018-11-28T11:54:25.469Z,96909.13
2018-11-28T11:56:54.120Z,96899.23
2018-11-28T11:59:42.076Z,96901.66
2018-11-28T12:08:48.769Z,96905.97
2018-11-28T12:11:19.808Z,96902.77
2018-11-28T12:14:08.042Z,96899.62
2018-11-28T12:16:37.128Z,96907.30
2018-11-28T12:19:06.513Z,96903.05
2018-11-28T12:21:35.145Z,96901.56
2018-11-28T12:24:23.389Z,96905.13
2018-11-28T12:26:52.161Z,96905.41
2018-11-28T12:29:20.769Z,96911.88
2018-11-28T12:31:50.902Z,96904.22
2018-11-28T12:34:39.150Z,96899.86
2018-11-28T12:37:07.934Z,96911.95
2018-11-28T12:39:36.553Z,96900.16
2018-11-28T12:42:05.248Z,96896.45
2018-11-28T12:44:53.235Z,96886.18
2018-11-28T12:47:22.018Z,96885.19
2018-11-28T12:52:50.618Z,96883.63
2018-11-28T12:55:19.945Z,96874.34
2018-11-28T12:57:48.651Z,96876.72
2018-11-28T13:00:55.960Z,96869.70
2018-11-28T13:03:24.699Z,96866.17
2018-11-28T13:06:12.909Z,96864.91
2018-11-28T13:08:41.902Z,96852.27
2018-11-28T13:11:10.579Z,96857.69
2018-11-28T13:13:41.585Z,96856.39
2018-11-28T13:16:29.528Z,96854.63
2018-11-28T13:18:58.275Z,96858.00
2018-11-28T13:21:28.962Z,96853.77
2018-11-28T13:24:14.376Z,96850.02
2018-11-28T13:26:41.794Z,96841.19
2018-11-28T13:29:10.423Z,96843.33
2018-11-28T13:31:39.118Z,96841.73
2018-11-28T13:34:28.443Z,96845.03
2018-11-28T13:43:45.574Z,96850.75
2018-11-28T13:46:14.699Z,96848.62
2018-11-28T13:49:02.707Z,96851.91
2018-11-28T13:51:31.399Z,96853.42
2018-11-28T13:54:00.024Z,96852.97
2018-11-28T13:57:05.019Z,96847.39
2018-11-28T13:59:16.928Z,96854.77
2018-11-28T14:01:45.633Z,96850.67
2018-11-28T14:04:14.267Z,96851.03
2018-11-28T14:07:02.282Z,96856.45
2018-11-28T14:09:30.977Z,96851.69
2018-11-28T14:12:18.977Z,96853.66
2018-11-28T14:14:49.992Z,96854.80
2018-11-28T14:17:18.651Z,96850.57
2018-11-28T14:20:07.806Z,96850.41
2018-11-28T14:22:36.477Z,96851.06
2018-11-28T14:25:05.216Z,96853.69
2018-11-28T14:27:53.195Z,96852.86
2018-11-28T14:30:22.928Z,96859.42
2018-11-28T14:32:52.125Z,96865.03
2018-11-28T14:35:40.102Z,96861.92
2018-11-28T14:38:28.077Z,96863.06
2018-11-28T14:41:16.374Z,96868.48
2018-11-28T14:44:04.071Z,96877.16
2018-11-28T14:46:52.003Z,96873.25
2018-11-28T14:49:20.702Z,96868.50
2018-11-28T14:51:49.379Z,96877.84
2018-11-28T14:54:37.415Z,96876.36
2018-11-28T14:57:06.969Z,96874.91
2018-11-28T14:59:56.663Z,96875.09
2018-11-28T15:02:25.298Z,96876.06
2018-11-28T15:04:53.894Z,96872.78
2018-11-28T15:07:41.878Z,96876.39
2018-11-28T15:10:11.191Z,96877.88
2018-11-28T15:12:59.178Z,96871.81
2018-11-28T15:15:29.269Z,96869.19
2018-11-28T15:17:56.655Z,96860.85
2018-11-28T15:20:47.323Z,96865.10
2018-11-28T15:23:16.004Z,96858.70
2018-11-28T15:25:44.990Z,96854.47
2018-11-28T15:28:33.173Z,96859.71
2018-11-28T15:31:01.848Z,96858.88
2018-11-28T15:33:33.246Z,96868.86
2018-11-28T15:36:04.426Z,96861.66
2018-11-28T15:38:55.123Z,96866.90
2018-11-28T15:41:23.816Z,96865.61
2018-11-28T15:43:54.634Z,96864.45
2018-11-28T15:46:23.325Z,96868.39
2018-11-28T15:49:16.028Z,96871.48
2018-11-28T15:51:56.870Z,96871.02
2018-11-28T15:54:26.638Z,96878.19
2018-11-28T15:57:16.128Z,96877.39
2018-11-28T15:59:47.758Z,96877.88
2018-11-28T16:02:36.025Z,96876.70
2018-11-28T16:05:05.472Z,96872.62
2018-11-28T16:07:34.121Z,96876.87
2018-11-28T16:10:41.294Z,96873.30
2018-11-28T16:13:10.110Z,96867.05
2018-11-28T16:15:59.049Z,96867.53
2018-11-28T16:21:15.418Z,96872.78
2018-11-28T16:24:03.379Z,96875.91
2018-11-28T16:26:32.089Z,96879.98
2018-11-28T16:29:00.808Z,96877.70
2018-11-28T16:31:48.760Z,96878.54
2018-11-28T16:34:19.524Z,96878.68
2018-11-28T16:36:48.236Z,96881.63
2018-11-28T16:42:28.677Z,96889.31
2018-11-28T16:44:57.360Z,96887.36
2018-11-28T16:48:04.699Z,96886.85
2018-11-28T16:50:35.151Z,96887.20
2018-11-28T16:53:23.150Z,96883.07
2018-11-28T16:55:54.049Z,96886.19
2018-11-28T16:58:22.639Z,96878.98
2018-11-28T17:01:15.921Z,96878.67
2018-11-28T17:06:32.382Z,96876.03
2018-11-28T17:09:20.386Z,96877.84
2018-11-28T17:12:41.605Z,96876.72
2018-11-28T17:15:55.912Z,96871.13
2018-11-28T17:18:25.013Z,96869.34
2018-11-28T17:20:53.688Z,96867.70
2018-11-28T17:23:41.972Z,96870.02
2018-11-28T17:26:10.609Z,96869.52
2018-11-28T17:28:39.286Z,96863.11
2018-11-28T17:31:12.410Z,96869.33
2018-11-28T17:34:01.066Z,96860.81
2018-11-28T17:36:29.750Z,96861.63
2018-11-28T17:39:00.956Z,96866.72
2018-11-28T17:41:49.200Z,96874.05
2018-11-28T17:47:05.667Z,96864.59
2018-11-28T17:49:53.697Z,96865.23
2018-11-28T17:52:22.490Z,96859.51
2018-11-28T17:54:51.100Z,96853.77
2018-11-28T17:57:39.408Z,96845.28
2018-11-28T18:00:12.360Z,96844.48
2018-11-28T18:02:41.307Z,96844.95
2018-11-28T18:05:10.837Z,96841.20
2018-11-28T18:08:18.325Z,96842.00
2018-11-28T18:10:46.976Z,96839.08
2018-11-28T18:13:16.841Z,96845.13
2018-11-28T18:16:05.093Z,96846.25
2018-11-28T18:18:33.807Z,96844.47
2018-11-28T18:21:02.512Z,96845.94
2018-11-28T18:23:31.233Z,96846.58
2018-11-28T18:26:21.631Z,96843.48
2018-11-28T18:28:50.340Z,96837.43
2018-11-28T18:31:38.536Z,96839.72
2018-11-28T18:34:07.315Z,96832.19
2018-11-28T18:36:36.006Z,96840.19
2018-11-28T18:39:05.524Z,96832.16
2018-11-28T18:41:53.799Z,96821.00
2018-11-28T18:44:22.501Z,96817.56
2018-11-28T18:46:51.121Z,96823.14
2018-11-28T18:49:19.803Z,96815.58
2018-11-28T18:54:58.698Z,96813.31
2018-11-28T18:57:27.363Z,96812.83
2018-11-28T19:00:36.712Z,96817.55
2018-11-28T19:03:07.870Z,96814.27
2018-11-28T19:05:36.836Z,96802.97
2018-11-28T19:08:05.738Z,96803.30
2018-11-28T19:10:54.046Z,96811.98
2018-11-28T19:13:22.960Z,96795.23
2018-11-28T19:15:51.674Z,96799.36
2018-11-28T19:18:39.926Z,96796.88
2018-11-28T19:21:09.751Z,96804.25
2018-11-28T19:23:37.341Z,96804.12
2018-11-28T19:26:08.492Z,96808.05
2018-11-28T19:28:56.783Z,96815.09
2018-11-28T19:31:25.450Z,96812.97
2018-11-28T19:33:54.052Z,96823.13
2018-11-28T19:36:22.717Z,96822.63
2018-11-28T19:39:10.997Z,96811.33
2018-11-28T19:41:39.644Z,96811.46
2018-11-28T19:44:08.351Z,96804.74
2018-11-28T19:46:58.637Z,96807.20
2018-11-28T19:49:27.372Z,96811.62
2018-11-28T19:51:56.021Z,96804.42
2018-11-28T19:54:44.308Z,96810.16
2018-11-28T19:57:12.950Z,96813.44
2018-11-28T19:59:43.692Z,96811.77
2018-11-28T20:02:12.334Z,96812.26
2018-11-28T20:05:00.599Z,96815.05
2018-11-28T20:07:29.362Z,96812.59
2018-11-28T20:10:17.278Z,96825.89
2018-11-28T20:12:46.035Z,96818.52
2018-11-28T20:15:34.352Z,96820.16
2018-11-28T20:18:03.025Z,96814.58
2018-11-28T20:20:31.640Z,96812.78
2018-11-28T20:23:02.161Z,96817.37
2018-11-28T20:25:48.610Z,96815.05
2018-11-28T20:28:17.276Z,96820.78
2018-11-28T20:30:49.188Z,96818.98
2018-11-28T20:33:18.350Z,96812.75
2018-11-28T20:36:06.650Z,96814.88
2018-11-28T20:38:54.669Z,96809.47
2018-11-28T20:41:23.506Z,96801.11
2018-11-28T20:44:11.614Z,96800.30
2018-11-28T20:46:40.326Z,96800.30
2018-11-28T20:49:28.242Z,96798.98
2018-11-28T20:51:58.776Z,96793.08
2018-11-28T20:54:29.600Z,96790.29
2018-11-28T20:56:58.195Z,96791.93
2018-11-28T20:59:46.489Z,96800.95
2018-11-28T21:02:15.180Z,96797.50
2018-11-28T21:04:52.559Z,96800.95
2018-11-28T21:07:21.475Z,96805.70
2018-11-28T21:10:29.369Z,96799.80
2018-11-28T21:12:58.054Z,96805.41
2018-11-28T21:15:26.656Z,96811.47
2018-11-28T21:18:14.986Z,96800.95
2018-11-28T21:20:45.079Z,96789.64
2018-11-28T21:23:18.307Z,96798.33
2018-11-28T21:26:13.065Z,96802.91
2018-11-28T21:28:41.764Z,96808.00
2018-11-28T21:31:10.465Z,96820.48
2018-11-28T21:34:05.384Z,96816.71
2018-11-28T21:36:32.893Z,96819.83
2018-11-28T21:39:04.987Z,96823.77
2018-11-28T21:41:53.288Z,96817.53
2018-11-28T21:47:09.597Z,96822.61
2018-11-28T21:49:57.865Z,96822.45
2018-11-28T21:55:36.126Z,96825.56
2018-11-28T21:58:04.834Z,96827.83
2018-11-28T22:00:33.606Z,96824.72
2018-11-28T22:03:02.195Z,96822.91
2018-11-28T22:05:43.448Z,96818.02
2018-11-28T22:08:23.875Z,96819.01
2018-11-28T22:10:55.384Z,96815.89
2018-11-28T22:13:24.012Z,96814.91
2018-11-28T22:16:12.232Z,96821.14
2018-11-28T22:18:40.943Z,96821.63
2018-11-28T22:21:12.332Z,96817.70
2018-11-28T22:23:41.019Z,96822.61
2018-11-28T22:26:29.304Z,96835.73
2018-11-28T22:29:00.218Z,96825.07
2018-11-28T22:31:28.894Z,96834.08
2018-11-28T22:33:57.572Z,96824.28
2018-11-28T22:36:45.855Z,96832.30
2018-11-28T22:39:14.572Z,96838.20
2018-11-28T22:41:44.028Z,96833.77
2018-11-28T22:44:12.644Z,96823.97
2018-11-28T22:47:00.884Z,96818.20
2018-11-28T22:49:29.571Z,96812.66
2018-11-28T22:51:58.623Z,96808.23
2018-11-28T22:54:53.643Z,96804.93
2018-11-28T22:57:22.316Z,96800.37
2018-11-28T22:59:55.851Z,96789.36
2018-11-28T23:03:22.144Z,96781.20
2018-11-28T23:05:52.001Z,96784.97
2018-11-28T23:08:39.997Z,96778.73
2018-11-28T23:11:08.659Z,96773.48
2018-11-28T23:16:44.218Z,96777.40
2018-11-28T23:19:12.900Z,96767.76
2018-11-28T23:22:00.853Z,96767.59
2018-11-28T23:24:29.531Z,96764.64
2018-11-28T23:27:17.483Z,96763.14
2018-11-28T23:29:46.271Z,96750.33
2018-11-28T23:32:14.959Z,96744.42
2018-11-28T23:35:22.199Z,96745.11
2018-11-28T23:37:51.035Z,96742.33
2018-11-28T23:40:20.462Z,96743.15
2018-11-28T23:43:08.438Z,96736.27
2018-11-28T23:45:37.159Z,96731.31
2018-11-28T23:48:05.996Z,96728.03
2018-11-28T23:50:34.668Z,96723.61
2018-11-28T23:53:03.374Z,96724.72
2018-11-28T23:55:32.441Z,96715.53
2018-11-28T23:58:20.828Z,96715.53
